Airfield :
LOGIN :

Register | Disclaimer

   EN    FR    IT 

 










Legend :    VFR   Marginal VFR   IFR   Intensive IFR   Very Intensive IFR
Visi :
Ceiling :
>= 8 km
>= 3000ft
5 to 8 km
1000 to 3000 ft
1500m to 5 km
500 to 1000 ft
800 to 1500m
200 to 500 ft
< 800m
< 200 ft
Symbols :   Thunderstorms  Fog  Heavy snow  Heavy precipitations  Wind > 20 kt
SIGMETs :     Misc.  Thunderstorms  Icing  Turbulence  Mountain Waves  Volcanic Ashes






- Airport Elevation : 416 ft
- IATA code : OVD


LEAS - Asturias

CURRENT METAR :
  • 081700Z 04005KT 330V100 9999 FEW010 22/18 Q1020 NOSIG

EXPIRED METARs :
  • 081630Z 04007KT 330V100 9999 FEW010 22/18 Q1020 NOSIG
  • 081600Z 05007KT 360V100 9999 FEW010 22/18 Q1019 NOSIG
  • 081530Z 06007KT 010V110 9999 FEW010 22/18 Q1020 NOSIG
  • 081500Z 06008KT 010V140 9999 FEW010 22/18 Q1020 NOSIG
  • 081430Z 06007KT 350V120 9999 FEW010 23/19 Q1020 NOSIG

TAF AMD TAF LEAS
Valid from the 08 at 16:00 until the 09 at 15:00 UTC


081654Z 0816/0915 22003KT 9999 FEW020 TX23/0914Z TN17/0905Z
TEMPO 0816/0818 03010KT
TEMPO 0817/0821 SCT030TCU
PROB30
TEMPO 0817/0821 SHRA TS SCT030CB BKN040TCU
PROB40
TEMPO 0821/0907 3000 BR BKN010
TEMPO 0910/0915 35010KT



MET'MAP, your aeronautical weather chart ! - Copyright ORBIFLY December 2007 - Disclaimer

ORBIFLY MET'MAP TEAM :

Programming & Development : Alexandra Zaïnal
Concept & original design : Baudouin d'Aumeries
Assistance for programming : Marc-Olivier Méhu
Technical & hardware support : Manuel Goepfert

Contact : metmap@orbifly.com




SOURCES & CREDITS :

   NOAA